Hauptseite
METAR-TAF:

METAR-TAF

Flughäfen :

Flughafen Kiel

Kiel, Deutschland

Breite: 54-23N, Länge: 010-10E, Höhe: 31 m

Beobachtung

Neuester Wetterbericht von vor 13 Stunden und 5 Minuten, um 15:20 UTC
Wind 3 kt aus unterschiedlichen Richtungen
Temperatur 1°C
Luftfeuchtigkeit 75%
Luftdruck 1020 hPa
Sichtweite 10 km oder mehr
keine Wolken unter 1500 m und keine Kumulonimbus oder Gewitterwolken

METAR: EDHK 201520Z VRB03KT CAVOK 01/M03 Q1020

Zeit: 05:25 (04:25 UTC)

Prognose

Neuester Wetterbericht von vor 14 Stunden und 25 Minuten, um 14:00 UTC
Gültige Prognose vom 20 um 15 UTC bis 20 um 18 UTC
Wind 3 kt aus West/Südwest
Sichtweite 10 km oder mehr
keine Wolken unter 1500 m und keine Kumulonimbus oder Gewitterwolken

TAF: EDHK 201400Z 2015/2018 24003KT CAVOK

Wetterbeobachtungen und Prognosen von mehr als 4000 Flughäfen (METAR und TAF Bericht).

Die verfügbaren Stationen werden durch gelbe und rote Markierungen auf der Karte dargestellt.

Führen Sie die Maus auf sie, um den Namen der Station zu sehen.

Darauf klicken, um die Beobachtung von Wetterbeobachtungen und Prognosen zu sehen.

Um die Karte zu ändern : klicken Sie auf den grünen Tasten mit einem schwarzen Kreuz Zum Vergrößern, auf den grünen Button mit einem Gedankenstrich zu verkleinern, oder auf die grünen Pfeile für benachbarte Karten.


METAR-TAF: